sensor_id;sensor_type;location;lat;lon;timestamp;P1;durP1;ratioP1;P2;durP2;ratioP2
50745;SDS011;36711;51.972;21.204;2022-07-06T00:00:04;3.30;;;3.00;;
50745;SDS011;36711;51.972;21.204;2022-07-06T00:02:53;3.50;;;2.70;;
50745;SDS011;36711;51.972;21.204;2022-07-06T00:05:21;2.90;;;2.70;;
50745;SDS011;36711;51.972;21.204;2022-07-06T00:07:48;2.70;;;2.50;;
50745;SDS011;36711;51.972;21.204;2022-07-06T00:10:16;2.80;;;2.60;;
50745;SDS011;36711;51.972;21.204;2022-07-06T00:12:44;4.80;;;2.50;;
50745;SDS011;36711;51.972;21.204;2022-07-06T00:15:12;2.80;;;2.50;;
50745;SDS011;36711;51.972;21.204;2022-07-06T00:17:40;3.90;;;3.10;;
50745;SDS011;36711;51.972;21.204;2022-07-06T00:20:08;2.90;;;2.60;;
50745;SDS011;36711;51.972;21.204;2022-07-06T00:22:36;5.70;;;3.00;;
50745;SDS011;36711;51.972;21.204;2022-07-06T00:25:04;5.40;;;3.10;;
50745;SDS011;36711;51.972;21.204;2022-07-06T00:27:33;3.30;;;3.00;;
50745;SDS011;36711;51.972;21.204;2022-07-06T00:30:00;2.90;;;2.70;;
50745;SDS011;36711;51.972;21.204;2022-07-06T00:32:28;3.10;;;2.80;;
50745;SDS011;36711;51.972;21.204;2022-07-06T00:34:56;3.40;;;2.90;;
50745;SDS011;36711;51.972;21.204;2022-07-06T00:37:24;6.90;;;2.90;;
50745;SDS011;36711;51.972;21.204;2022-07-06T00:39:52;5.90;;;3.00;;
50745;SDS011;36711;51.972;21.204;2022-07-06T00:42:19;3.60;;;3.30;;
50745;SDS011;36711;51.972;21.204;2022-07-06T00:44:47;3.00;;;2.70;;
50745;SDS011;36711;51.972;21.204;2022-07-06T00:47:15;3.20;;;2.40;;
50745;SDS011;36711;51.972;21.204;2022-07-06T00:49:43;3.20;;;2.90;;
50745;SDS011;36711;51.972;21.204;2022-07-06T00:52:30;4.00;;;2.60;;
50745;SDS011;36711;51.972;21.204;2022-07-06T00:54:58;3.70;;;2.30;;
50745;SDS011;36711;51.972;21.204;2022-07-06T00:57:26;2.80;;;2.50;;
50745;SDS011;36711;51.972;21.204;2022-07-06T00:59:54;6.70;;;2.80;;
50745;SDS011;36711;51.972;21.204;2022-07-06T01:02:22;3.40;;;2.90;;
50745;SDS011;36711;51.972;21.204;2022-07-06T01:04:50;3.90;;;2.50;;
50745;SDS011;36711;51.972;21.204;2022-07-06T01:07:18;3.60;;;2.70;;
50745;SDS011;36711;51.972;21.204;2022-07-06T01:09:46;2.90;;;2.60;;
50745;SDS011;36711;51.972;21.204;2022-07-06T01:12:14;4.20;;;2.40;;
50745;SDS011;36711;51.972;21.204;2022-07-06T01:14:41;3.70;;;2.50;;
50745;SDS011;36711;51.972;21.204;2022-07-06T01:17:09;3.20;;;2.90;;
50745;SDS011;36711;51.972;21.204;2022-07-06T01:19:38;3.60;;;2.70;;
50745;SDS011;36711;51.972;21.204;2022-07-06T01:22:05;4.10;;;2.70;;
50745;SDS011;36711;51.972;21.204;2022-07-06T01:24:36;3.00;;;2.70;;
50745;SDS011;36711;51.972;21.204;2022-07-06T01:27:05;3.00;;;2.60;;
50745;SDS011;36711;51.972;21.204;2022-07-06T01:29:34;5.00;;;2.60;;
50745;SDS011;36711;51.972;21.204;2022-07-06T01:32:02;3.10;;;2.80;;
50745;SDS011;36711;51.972;21.204;2022-07-06T01:34:31;4.50;;;2.80;;
50745;SDS011;36711;51.972;21.204;2022-07-06T01:36:58;2.40;;;2.20;;
50745;SDS011;36711;51.972;21.204;2022-07-06T01:39:26;6.90;;;2.50;;
50745;SDS011;36711;51.972;21.204;2022-07-06T01:41:54;3.00;;;2.40;;
50745;SDS011;36711;51.972;21.204;2022-07-06T01:44:22;3.90;;;2.10;;
50745;SDS011;36711;51.972;21.204;2022-07-06T01:46:50;2.60;;;2.30;;
50745;SDS011;36711;51.972;21.204;2022-07-06T01:49:17;7.60;;;2.30;;
50745;SDS011;36711;51.972;21.204;2022-07-06T01:51:45;2.60;;;2.30;;
50745;SDS011;36711;51.972;21.204;2022-07-06T01:54:13;5.20;;;2.20;;
50745;SDS011;36711;51.972;21.204;2022-07-06T01:56:41;2.70;;;2.40;;
50745;SDS011;36711;51.972;21.204;2022-07-06T01:59:09;3.10;;;2.40;;
50745;SDS011;36711;51.972;21.204;2022-07-06T02:01:37;4.20;;;2.40;;
50745;SDS011;36711;51.972;21.204;2022-07-06T02:04:05;5.00;;;2.30;;
50745;SDS011;36711;51.972;21.204;2022-07-06T02:06:32;2.50;;;2.30;;
50745;SDS011;36711;51.972;21.204;2022-07-06T02:09:00;4.20;;;2.30;;
50745;SDS011;36711;51.972;21.204;2022-07-06T02:11:28;2.70;;;2.10;;
50745;SDS011;36711;51.972;21.204;2022-07-06T02:13:56;3.10;;;2.40;;
50745;SDS011;36711;51.972;21.204;2022-07-06T02:16:24;3.60;;;2.20;;
50745;SDS011;36711;51.972;21.204;2022-07-06T02:18:52;6.20;;;2.20;;
50745;SDS011;36711;51.972;21.204;2022-07-06T02:21:20;4.30;;;2.10;;
50745;SDS011;36711;51.972;21.204;2022-07-06T02:23:47;2.50;;;2.10;;
50745;SDS011;36711;51.972;21.204;2022-07-06T02:26:15;5.60;;;2.00;;
50745;SDS011;36711;51.972;21.204;2022-07-06T02:28:43;5.00;;;2.50;;
50745;SDS011;36711;51.972;21.204;2022-07-06T02:31:13;3.20;;;2.30;;
50745;SDS011;36711;51.972;21.204;2022-07-06T02:33:41;4.00;;;2.10;;
50745;SDS011;36711;51.972;21.204;2022-07-06T02:36:09;4.40;;;2.00;;
50745;SDS011;36711;51.972;21.204;2022-07-06T02:38:37;1.90;;;1.80;;
50745;SDS011;36711;51.972;21.204;2022-07-06T02:41:05;2.10;;;1.80;;
50745;SDS011;36711;51.972;21.204;2022-07-06T02:43:32;4.10;;;2.10;;
50745;SDS011;36711;51.972;21.204;2022-07-06T02:46:00;3.00;;;1.90;;
50745;SDS011;36711;51.972;21.204;2022-07-06T02:48:29;2.10;;;1.90;;
50745;SDS011;36711;51.972;21.204;2022-07-06T02:50:57;2.00;;;1.70;;
50745;SDS011;36711;51.972;21.204;2022-07-06T02:53:26;2.90;;;1.90;;
50745;SDS011;36711;51.972;21.204;2022-07-06T02:55:54;1.70;;;1.60;;
50745;SDS011;36711;51.972;21.204;2022-07-06T02:58:21;2.20;;;1.70;;
50745;SDS011;36711;51.972;21.204;2022-07-06T03:00:50;2.80;;;1.70;;
50745;SDS011;36711;51.972;21.204;2022-07-06T03:03:18;1.90;;;1.70;;
50745;SDS011;36711;51.972;21.204;2022-07-06T03:05:45;4.80;;;1.70;;
50745;SDS011;36711;51.972;21.204;2022-07-06T03:08:16;2.40;;;1.60;;
50745;SDS011;36711;51.972;21.204;2022-07-06T03:10:43;2.30;;;1.60;;
50745;SDS011;36711;51.972;21.204;2022-07-06T03:13:11;2.90;;;1.60;;
50745;SDS011;36711;51.972;21.204;2022-07-06T03:15:39;2.30;;;2.10;;
50745;SDS011;36711;51.972;21.204;2022-07-06T03:18:07;2.40;;;1.60;;
50745;SDS011;36711;51.972;21.204;2022-07-06T03:20:34;5.10;;;1.90;;
50745;SDS011;36711;51.972;21.204;2022-07-06T03:23:02;3.70;;;2.00;;
50745;SDS011;36711;51.972;21.204;2022-07-06T03:25:30;2.00;;;1.80;;
50745;SDS011;36711;51.972;21.204;2022-07-06T03:27:59;4.20;;;2.20;;
50745;SDS011;36711;51.972;21.204;2022-07-06T03:30:27;3.40;;;2.00;;
50745;SDS011;36711;51.972;21.204;2022-07-06T03:32:55;2.20;;;1.90;;
50745;SDS011;36711;51.972;21.204;2022-07-06T03:35:23;1.90;;;1.60;;
50745;SDS011;36711;51.972;21.204;2022-07-06T03:37:51;2.10;;;1.80;;
50745;SDS011;36711;51.972;21.204;2022-07-06T03:40:19;2.50;;;1.50;;
50745;SDS011;36711;51.972;21.204;2022-07-06T03:42:47;3.10;;;1.90;;
50745;SDS011;36711;51.972;21.204;2022-07-06T03:45:15;1.80;;;1.70;;
50745;SDS011;36711;51.972;21.204;2022-07-06T03:47:43;3.20;;;1.80;;
50745;SDS011;36711;51.972;21.204;2022-07-06T03:50:10;2.30;;;1.60;;
50745;SDS011;36711;51.972;21.204;2022-07-06T03:52:38;2.30;;;1.60;;
50745;SDS011;36711;51.972;21.204;2022-07-06T03:55:10;2.90;;;1.90;;
50745;SDS011;36711;51.972;21.204;2022-07-06T03:57:38;2.40;;;1.70;;
50745;SDS011;36711;51.972;21.204;2022-07-06T04:00:08;2.90;;;1.70;;
50745;SDS011;36711;51.972;21.204;2022-07-06T04:02:36;1.80;;;1.70;;
50745;SDS011;36711;51.972;21.204;2022-07-06T04:05:04;1.70;;;1.60;;
50745;SDS011;36711;51.972;21.204;2022-07-06T04:07:32;1.80;;;1.60;;
50745;SDS011;36711;51.972;21.204;2022-07-06T04:10:00;2.60;;;1.70;;
50745;SDS011;36711;51.972;21.204;2022-07-06T04:12:28;2.80;;;1.70;;
50745;SDS011;36711;51.972;21.204;2022-07-06T04:14:56;1.80;;;1.70;;
50745;SDS011;36711;51.972;21.204;2022-07-06T04:17:25;2.20;;;1.90;;
50745;SDS011;36711;51.972;21.204;2022-07-06T04:20:11;2.10;;;1.90;;
50745;SDS011;36711;51.972;21.204;2022-07-06T04:22:40;2.90;;;1.90;;
50745;SDS011;36711;51.972;21.204;2022-07-06T04:25:08;1.60;;;1.50;;
50745;SDS011;36711;51.972;21.204;2022-07-06T04:27:36;2.20;;;1.90;;
50745;SDS011;36711;51.972;21.204;2022-07-06T04:30:04;2.20;;;1.90;;
50745;SDS011;36711;51.972;21.204;2022-07-06T04:32:32;2.20;;;1.80;;
50745;SDS011;36711;51.972;21.204;2022-07-06T04:35:00;3.00;;;1.80;;
50745;SDS011;36711;51.972;21.204;2022-07-06T04:37:29;3.10;;;2.10;;
50745;SDS011;36711;51.972;21.204;2022-07-06T04:39:57;3.00;;;1.70;;
50745;SDS011;36711;51.972;21.204;2022-07-06T04:42:24;3.40;;;1.80;;
50745;SDS011;36711;51.972;21.204;2022-07-06T04:44:52;1.50;;;1.40;;
50745;SDS011;36711;51.972;21.204;2022-07-06T04:47:20;2.10;;;1.50;;
50745;SDS011;36711;51.972;21.204;2022-07-06T04:49:48;2.90;;;1.70;;
50745;SDS011;36711;51.972;21.204;2022-07-06T04:52:15;2.20;;;1.70;;
50745;SDS011;36711;51.972;21.204;2022-07-06T04:54:43;4.20;;;1.40;;
50745;SDS011;36711;51.972;21.204;2022-07-06T04:57:11;1.60;;;1.50;;
50745;SDS011;36711;51.972;21.204;2022-07-06T04:59:39;1.60;;;1.50;;
50745;SDS011;36711;51.972;21.204;2022-07-06T05:02:07;2.00;;;1.50;;
50745;SDS011;36711;51.972;21.204;2022-07-06T05:04:35;1.60;;;1.30;;
50745;SDS011;36711;51.972;21.204;2022-07-06T05:07:03;1.20;;;1.10;;
50745;SDS011;36711;51.972;21.204;2022-07-06T05:09:31;4.10;;;1.50;;
50745;SDS011;36711;51.972;21.204;2022-07-06T05:11:59;2.60;;;1.70;;
50745;SDS011;36711;51.972;21.204;2022-07-06T05:14:27;2.20;;;1.80;;
50745;SDS011;36711;51.972;21.204;2022-07-06T05:16:54;4.30;;;1.50;;
50745;SDS011;36711;51.972;21.204;2022-07-06T05:19:22;2.80;;;1.40;;
50745;SDS011;36711;51.972;21.204;2022-07-06T05:21:50;1.20;;;1.10;;
50745;SDS011;36711;51.972;21.204;2022-07-06T05:24:18;1.80;;;1.40;;
50745;SDS011;36711;51.972;21.204;2022-07-06T05:26:49;1.60;;;1.50;;
50745;SDS011;36711;51.972;21.204;2022-07-06T05:29:17;1.70;;;1.50;;
50745;SDS011;36711;51.972;21.204;2022-07-06T05:31:44;1.40;;;1.20;;
50745;SDS011;36711;51.972;21.204;2022-07-06T05:34:13;1.60;;;1.20;;
50745;SDS011;36711;51.972;21.204;2022-07-06T05:36:40;1.60;;;1.10;;
50745;SDS011;36711;51.972;21.204;2022-07-06T05:39:08;2.10;;;1.20;;
50745;SDS011;36711;51.972;21.204;2022-07-06T05:41:36;1.60;;;1.30;;
50745;SDS011;36711;51.972;21.204;2022-07-06T05:44:03;1.80;;;1.20;;
50745;SDS011;36711;51.972;21.204;2022-07-06T05:46:32;2.30;;;1.30;;
50745;SDS011;36711;51.972;21.204;2022-07-06T05:49:00;1.40;;;1.30;;
50745;SDS011;36711;51.972;21.204;2022-07-06T05:51:46;1.20;;;1.10;;
50745;SDS011;36711;51.972;21.204;2022-07-06T05:54:14;1.80;;;1.10;;
50745;SDS011;36711;51.972;21.204;2022-07-06T05:56:41;1.70;;;1.30;;
50745;SDS011;36711;51.972;21.204;2022-07-06T05:59:09;1.40;;;1.30;;
50745;SDS011;36711;51.972;21.204;2022-07-06T06:01:37;3.60;;;1.10;;
50745;SDS011;36711;51.972;21.204;2022-07-06T06:04:05;1.10;;;1.00;;
50745;SDS011;36711;51.972;21.204;2022-07-06T06:06:32;1.50;;;1.00;;
50745;SDS011;36711;51.972;21.204;2022-07-06T06:09:00;2.10;;;1.00;;
50745;SDS011;36711;51.972;21.204;2022-07-06T06:11:28;0.90;;;0.90;;
50745;SDS011;36711;51.972;21.204;2022-07-06T06:13:56;1.90;;;1.00;;
50745;SDS011;36711;51.972;21.204;2022-07-06T06:16:24;0.90;;;0.90;;
50745;SDS011;36711;51.972;21.204;2022-07-06T06:18:52;1.10;;;0.90;;
50745;SDS011;36711;51.972;21.204;2022-07-06T06:21:19;0.90;;;0.80;;
50745;SDS011;36711;51.972;21.204;2022-07-06T06:23:47;0.90;;;0.90;;
50745;SDS011;36711;51.972;21.204;2022-07-06T06:26:15;1.10;;;0.90;;
50745;SDS011;36711;51.972;21.204;2022-07-06T06:28:43;2.10;;;1.30;;
50745;SDS011;36711;51.972;21.204;2022-07-06T06:31:10;2.40;;;1.40;;
50745;SDS011;36711;51.972;21.204;2022-07-06T06:33:38;2.60;;;1.30;;
50745;SDS011;36711;51.972;21.204;2022-07-06T06:36:06;2.20;;;1.00;;
50745;SDS011;36711;51.972;21.204;2022-07-06T06:38:34;1.90;;;1.00;;
50745;SDS011;36711;51.972;21.204;2022-07-06T06:41:02;3.10;;;1.30;;
50745;SDS011;36711;51.972;21.204;2022-07-06T06:43:30;2.60;;;1.60;;
50745;SDS011;36711;51.972;21.204;2022-07-06T06:45:58;3.10;;;1.30;;
50745;SDS011;36711;51.972;21.204;2022-07-06T06:48:25;4.10;;;1.10;;
50745;SDS011;36711;51.972;21.204;2022-07-06T06:50:54;2.30;;;1.00;;
50745;SDS011;36711;51.972;21.204;2022-07-06T06:53:22;1.70;;;0.80;;
50745;SDS011;36711;51.972;21.204;2022-07-06T06:55:50;2.10;;;1.10;;
50745;SDS011;36711;51.972;21.204;2022-07-06T06:58:18;1.20;;;1.00;;
50745;SDS011;36711;51.972;21.204;2022-07-06T07:00:45;2.70;;;0.90;;
50745;SDS011;36711;51.972;21.204;2022-07-06T07:03:14;1.30;;;0.90;;
50745;SDS011;36711;51.972;21.204;2022-07-06T07:05:42;2.00;;;0.80;;
50745;SDS011;36711;51.972;21.204;2022-07-06T07:08:10;1.30;;;0.90;;
50745;SDS011;36711;51.972;21.204;2022-07-06T07:10:38;2.10;;;1.20;;
50745;SDS011;36711;51.972;21.204;2022-07-06T07:13:06;1.30;;;1.00;;
50745;SDS011;36711;51.972;21.204;2022-07-06T07:15:33;1.50;;;1.40;;
50745;SDS011;36711;51.972;21.204;2022-07-06T07:18:01;2.50;;;1.30;;
50745;SDS011;36711;51.972;21.204;2022-07-06T07:20:30;1.50;;;1.00;;
50745;SDS011;36711;51.972;21.204;2022-07-06T07:22:58;0.80;;;0.80;;
50745;SDS011;36711;51.972;21.204;2022-07-06T07:25:27;1.20;;;0.90;;
50745;SDS011;36711;51.972;21.204;2022-07-06T07:27:55;0.80;;;0.80;;
50745;SDS011;36711;51.972;21.204;2022-07-06T07:30:23;1.70;;;1.00;;
50745;SDS011;36711;51.972;21.204;2022-07-06T07:32:51;1.40;;;1.00;;
50745;SDS011;36711;51.972;21.204;2022-07-06T07:35:19;3.80;;;1.20;;
50745;SDS011;36711;51.972;21.204;2022-07-06T07:37:47;3.90;;;1.20;;
50745;SDS011;36711;51.972;21.204;2022-07-06T07:40:15;1.30;;;1.10;;
50745;SDS011;36711;51.972;21.204;2022-07-06T07:42:43;3.40;;;1.20;;
50745;SDS011;36711;51.972;21.204;2022-07-06T07:45:11;5.20;;;1.20;;
50745;SDS011;36711;51.972;21.204;2022-07-06T07:47:39;1.80;;;1.70;;
50745;SDS011;36711;51.972;21.204;2022-07-06T07:50:07;3.20;;;1.70;;
50745;SDS011;36711;51.972;21.204;2022-07-06T07:52:35;1.90;;;1.70;;
50745;SDS011;36711;51.972;21.204;2022-07-06T07:55:04;2.50;;;1.70;;
50745;SDS011;36711;51.972;21.204;2022-07-06T07:57:52;3.20;;;1.20;;
50745;SDS011;36711;51.972;21.204;2022-07-06T08:00:20;4.50;;;1.30;;
50745;SDS011;36711;51.972;21.204;2022-07-06T08:02:54;2.30;;;0.90;;
50745;SDS011;36711;51.972;21.204;2022-07-06T08:05:22;2.10;;;1.10;;
50745;SDS011;36711;51.972;21.204;2022-07-06T08:07:50;4.90;;;1.10;;
50745;SDS011;36711;51.972;21.204;2022-07-06T08:10:18;1.60;;;1.30;;
50745;SDS011;36711;51.972;21.204;2022-07-06T08:12:47;2.50;;;1.10;;
50745;SDS011;36711;51.972;21.204;2022-07-06T08:15:15;1.50;;;1.40;;
50745;SDS011;36711;51.972;21.204;2022-07-06T08:17:43;2.00;;;1.50;;
50745;SDS011;36711;51.972;21.204;2022-07-06T08:20:11;5.70;;;1.60;;
50745;SDS011;36711;51.972;21.204;2022-07-06T08:22:41;3.10;;;1.70;;
50745;SDS011;36711;51.972;21.204;2022-07-06T08:25:10;1.70;;;1.50;;
50745;SDS011;36711;51.972;21.204;2022-07-06T08:27:38;3.40;;;1.90;;
50745;SDS011;36711;51.972;21.204;2022-07-06T08:30:06;4.20;;;1.90;;
50745;SDS011;36711;51.972;21.204;2022-07-06T08:32:36;5.10;;;2.00;;
50745;SDS011;36711;51.972;21.204;2022-07-06T08:35:26;3.50;;;1.90;;
50745;SDS011;36711;51.972;21.204;2022-07-06T08:37:53;5.40;;;1.70;;
50745;SDS011;36711;51.972;21.204;2022-07-06T08:40:21;3.10;;;1.70;;
50745;SDS011;36711;51.972;21.204;2022-07-06T08:42:52;1.50;;;1.40;;
50745;SDS011;36711;51.972;21.204;2022-07-06T08:45:21;1.70;;;1.40;;
50745;SDS011;36711;51.972;21.204;2022-07-06T08:47:49;5.90;;;1.70;;
50745;SDS011;36711;51.972;21.204;2022-07-06T08:50:17;4.10;;;1.60;;
50745;SDS011;36711;51.972;21.204;2022-07-06T08:52:48;2.40;;;1.50;;
50745;SDS011;36711;51.972;21.204;2022-07-06T08:55:17;7.30;;;2.00;;
50745;SDS011;36711;51.972;21.204;2022-07-06T08:57:46;6.10;;;1.70;;
50745;SDS011;36711;51.972;21.204;2022-07-06T09:00:14;5.30;;;1.90;;
50745;SDS011;36711;51.972;21.204;2022-07-06T09:02:42;2.70;;;2.00;;
50745;SDS011;36711;51.972;21.204;2022-07-06T09:05:14;2.80;;;1.50;;
50745;SDS011;36711;51.972;21.204;2022-07-06T09:07:45;4.20;;;2.20;;
50745;SDS011;36711;51.972;21.204;2022-07-06T09:10:26;2.70;;;1.80;;
50745;SDS011;36711;51.972;21.204;2022-07-06T09:13:01;5.00;;;2.10;;
50745;SDS011;36711;51.972;21.204;2022-07-06T09:15:32;5.40;;;1.80;;
50745;SDS011;36711;51.972;21.204;2022-07-06T09:18:02;4.00;;;1.50;;
50745;SDS011;36711;51.972;21.204;2022-07-06T09:20:31;3.20;;;1.30;;
50745;SDS011;36711;51.972;21.204;2022-07-06T09:23:03;4.40;;;1.50;;
50745;SDS011;36711;51.972;21.204;2022-07-06T09:25:36;2.30;;;1.40;;
50745;SDS011;36711;51.972;21.204;2022-07-06T09:28:04;3.20;;;0.90;;
50745;SDS011;36711;51.972;21.204;2022-07-06T09:30:34;1.20;;;0.70;;
50745;SDS011;36711;51.972;21.204;2022-07-06T09:33:08;1.10;;;1.00;;
50745;SDS011;36711;51.972;21.204;2022-07-06T09:35:37;3.70;;;1.30;;
50745;SDS011;36711;51.972;21.204;2022-07-06T09:38:07;2.10;;;1.00;;
50745;SDS011;36711;51.972;21.204;2022-07-06T09:40:38;2.40;;;0.90;;
50745;SDS011;36711;51.972;21.204;2022-07-06T09:45:51;1.40;;;0.80;;
50745;SDS011;36711;51.972;21.204;2022-07-06T09:48:20;3.80;;;0.80;;
50745;SDS011;36711;51.972;21.204;2022-07-06T09:50:59;3.60;;;0.60;;
50745;SDS011;36711;51.972;21.204;2022-07-06T09:53:34;1.80;;;0.50;;
50745;SDS011;36711;51.972;21.204;2022-07-06T09:56:03;1.90;;;0.40;;
50745;SDS011;36711;51.972;21.204;2022-07-06T09:58:32;2.30;;;0.50;;
50745;SDS011;36711;51.972;21.204;2022-07-06T10:01:26;2.00;;;0.50;;
50745;SDS011;36711;51.972;21.204;2022-07-06T10:03:55;2.70;;;0.80;;
50745;SDS011;36711;51.972;21.204;2022-07-06T10:06:24;2.70;;;0.80;;
50745;SDS011;36711;51.972;21.204;2022-07-06T10:08:55;2.60;;;0.80;;
50745;SDS011;36711;51.972;21.204;2022-07-06T10:11:25;2.20;;;0.80;;
50745;SDS011;36711;51.972;21.204;2022-07-06T10:13:56;1.00;;;0.70;;
50745;SDS011;36711;51.972;21.204;2022-07-06T10:16:25;2.70;;;0.70;;
50745;SDS011;36711;51.972;21.204;2022-07-06T10:18:53;1.60;;;0.50;;
50745;SDS011;36711;51.972;21.204;2022-07-06T10:21:22;2.50;;;0.50;;
50745;SDS011;36711;51.972;21.204;2022-07-06T10:23:50;1.10;;;0.40;;
50745;SDS011;36711;51.972;21.204;2022-07-06T10:26:19;0.80;;;0.50;;
50745;SDS011;36711;51.972;21.204;2022-07-06T10:28:50;3.60;;;0.50;;
50745;SDS011;36711;51.972;21.204;2022-07-06T10:31:20;2.50;;;0.40;;
50745;SDS011;36711;51.972;21.204;2022-07-06T10:33:48;0.70;;;0.30;;
50745;SDS011;36711;51.972;21.204;2022-07-06T10:36:16;1.40;;;0.40;;
50745;SDS011;36711;51.972;21.204;2022-07-06T10:38:46;2.40;;;0.40;;
50745;SDS011;36711;51.972;21.204;2022-07-06T10:41:17;2.00;;;0.40;;
50745;SDS011;36711;51.972;21.204;2022-07-06T10:43:46;0.60;;;0.40;;
50745;SDS011;36711;51.972;21.204;2022-07-06T10:46:15;1.40;;;0.40;;
50745;SDS011;36711;51.972;21.204;2022-07-06T10:48:48;2.10;;;0.40;;
50745;SDS011;36711;51.972;21.204;2022-07-06T10:51:22;0.40;;;0.30;;
50745;SDS011;36711;51.972;21.204;2022-07-06T10:53:59;0.80;;;0.30;;
50745;SDS011;36711;51.972;21.204;2022-07-06T10:56:48;1.20;;;0.50;;
50745;SDS011;36711;51.972;21.204;2022-07-06T10:59:20;1.80;;;0.50;;
50745;SDS011;36711;51.972;21.204;2022-07-06T11:04:49;2.40;;;0.40;;
50745;SDS011;36711;51.972;21.204;2022-07-06T11:07:18;2.30;;;0.40;;
50745;SDS011;36711;51.972;21.204;2022-07-06T11:09:56;4.30;;;0.40;;
50745;SDS011;36711;51.972;21.204;2022-07-06T11:12:25;1.60;;;0.50;;
50745;SDS011;36711;51.972;21.204;2022-07-06T11:14:53;2.90;;;0.40;;
50745;SDS011;36711;51.972;21.204;2022-07-06T11:17:21;1.90;;;0.30;;
50745;SDS011;36711;51.972;21.204;2022-07-06T11:19:54;3.10;;;0.40;;
50745;SDS011;36711;51.972;21.204;2022-07-06T11:22:24;1.90;;;0.40;;
50745;SDS011;36711;51.972;21.204;2022-07-06T11:24:54;2.50;;;0.40;;
50745;SDS011;36711;51.972;21.204;2022-07-06T11:27:23;2.30;;;0.40;;
50745;SDS011;36711;51.972;21.204;2022-07-06T11:29:51;1.50;;;0.30;;
50745;SDS011;36711;51.972;21.204;2022-07-06T11:32:22;0.50;;;0.20;;
50745;SDS011;36711;51.972;21.204;2022-07-06T11:34:55;3.70;;;0.50;;
50745;SDS011;36711;51.972;21.204;2022-07-06T11:37:23;5.10;;;0.40;;
50745;SDS011;36711;51.972;21.204;2022-07-06T11:39:53;1.00;;;0.40;;
50745;SDS011;36711;51.972;21.204;2022-07-06T11:42:21;0.80;;;0.30;;
50745;SDS011;36711;51.972;21.204;2022-07-06T11:44:48;0.90;;;0.40;;
50745;SDS011;36711;51.972;21.204;2022-07-06T11:47:17;2.20;;;0.40;;
50745;SDS011;36711;51.972;21.204;2022-07-06T11:49:51;0.90;;;0.30;;
50745;SDS011;36711;51.972;21.204;2022-07-06T11:52:20;1.20;;;0.40;;
50745;SDS011;36711;51.972;21.204;2022-07-06T11:54:56;1.20;;;0.40;;
50745;SDS011;36711;51.972;21.204;2022-07-06T11:57:25;0.80;;;0.40;;
50745;SDS011;36711;51.972;21.204;2022-07-06T11:59:54;1.30;;;0.40;;
50745;SDS011;36711;51.972;21.204;2022-07-06T12:02:24;1.40;;;0.40;;
50745;SDS011;36711;51.972;21.204;2022-07-06T12:04:51;2.40;;;0.40;;
50745;SDS011;36711;51.972;21.204;2022-07-06T12:07:19;1.60;;;0.30;;
50745;SDS011;36711;51.972;21.204;2022-07-06T12:09:47;1.20;;;0.40;;
50745;SDS011;36711;51.972;21.204;2022-07-06T12:12:15;0.60;;;0.20;;
50745;SDS011;36711;51.972;21.204;2022-07-06T12:14:44;0.80;;;0.30;;
50745;SDS011;36711;51.972;21.204;2022-07-06T12:17:13;0.70;;;0.40;;
50745;SDS011;36711;51.972;21.204;2022-07-06T12:19:42;0.80;;;0.40;;
50745;SDS011;36711;51.972;21.204;2022-07-06T12:22:10;2.00;;;0.30;;
50745;SDS011;36711;51.972;21.204;2022-07-06T12:24:42;2.70;;;0.40;;
50745;SDS011;36711;51.972;21.204;2022-07-06T12:27:14;1.60;;;0.30;;
50745;SDS011;36711;51.972;21.204;2022-07-06T12:29:44;0.90;;;0.30;;
50745;SDS011;36711;51.972;21.204;2022-07-06T12:32:18;3.50;;;0.40;;
50745;SDS011;36711;51.972;21.204;2022-07-06T12:34:47;1.60;;;0.30;;
50745;SDS011;36711;51.972;21.204;2022-07-06T12:37:30;4.80;;;0.30;;
50745;SDS011;36711;51.972;21.204;2022-07-06T12:39:58;1.40;;;0.30;;
50745;SDS011;36711;51.972;21.204;2022-07-06T12:42:26;0.20;;;0.20;;
50745;SDS011;36711;51.972;21.204;2022-07-06T12:44:55;1.30;;;0.20;;
50745;SDS011;36711;51.972;21.204;2022-07-06T12:47:23;2.40;;;0.30;;
50745;SDS011;36711;51.972;21.204;2022-07-06T12:50:08;0.80;;;0.30;;
50745;SDS011;36711;51.972;21.204;2022-07-06T12:52:38;3.30;;;0.40;;
50745;SDS011;36711;51.972;21.204;2022-07-06T12:55:07;1.80;;;0.40;;
50745;SDS011;36711;51.972;21.204;2022-07-06T12:57:44;1.10;;;0.30;;
50745;SDS011;36711;51.972;21.204;2022-07-06T13:00:14;2.60;;;0.40;;
50745;SDS011;36711;51.972;21.204;2022-07-06T13:02:45;0.50;;;0.20;;
50745;SDS011;36711;51.972;21.204;2022-07-06T13:05:33;1.80;;;0.20;;
50745;SDS011;36711;51.972;21.204;2022-07-06T13:08:02;1.50;;;0.20;;
50745;SDS011;36711;51.972;21.204;2022-07-06T13:10:31;0.90;;;0.30;;
50745;SDS011;36711;51.972;21.204;2022-07-06T13:12:59;4.10;;;0.40;;
50745;SDS011;36711;51.972;21.204;2022-07-06T13:15:26;3.20;;;0.30;;
50745;SDS011;36711;51.972;21.204;2022-07-06T13:17:54;3.20;;;0.30;;
50745;SDS011;36711;51.972;21.204;2022-07-06T13:20:22;1.90;;;0.30;;
50745;SDS011;36711;51.972;21.204;2022-07-06T13:22:50;1.10;;;0.40;;
50745;SDS011;36711;51.972;21.204;2022-07-06T13:25:18;1.00;;;0.20;;
50745;SDS011;36711;51.972;21.204;2022-07-06T13:27:46;1.30;;;0.20;;
50745;SDS011;36711;51.972;21.204;2022-07-06T13:30:14;1.60;;;0.30;;
50745;SDS011;36711;51.972;21.204;2022-07-06T13:32:41;1.10;;;0.30;;
50745;SDS011;36711;51.972;21.204;2022-07-06T13:35:09;1.00;;;0.40;;
50745;SDS011;36711;51.972;21.204;2022-07-06T13:37:37;0.90;;;0.40;;
50745;SDS011;36711;51.972;21.204;2022-07-06T13:40:05;0.80;;;0.40;;
50745;SDS011;36711;51.972;21.204;2022-07-06T13:42:33;2.40;;;0.40;;
50745;SDS011;36711;51.972;21.204;2022-07-06T13:45:01;2.40;;;0.40;;
50745;SDS011;36711;51.972;21.204;2022-07-06T13:47:29;1.30;;;0.40;;
50745;SDS011;36711;51.972;21.204;2022-07-06T13:49:57;3.50;;;0.40;;
50745;SDS011;36711;51.972;21.204;2022-07-06T13:52:25;4.00;;;0.70;;
50745;SDS011;36711;51.972;21.204;2022-07-06T13:54:52;3.40;;;0.50;;
50745;SDS011;36711;51.972;21.204;2022-07-06T13:57:28;1.40;;;0.30;;
50745;SDS011;36711;51.972;21.204;2022-07-06T13:59:55;1.50;;;0.40;;
50745;SDS011;36711;51.972;21.204;2022-07-06T14:02:23;3.20;;;0.40;;
50745;SDS011;36711;51.972;21.204;2022-07-06T14:04:51;2.00;;;0.30;;
50745;SDS011;36711;51.972;21.204;2022-07-06T14:07:19;1.00;;;0.50;;
50745;SDS011;36711;51.972;21.204;2022-07-06T14:09:47;6.20;;;0.40;;
50745;SDS011;36711;51.972;21.204;2022-07-06T14:12:19;1.40;;;0.50;;
50745;SDS011;36711;51.972;21.204;2022-07-06T14:14:49;4.10;;;0.50;;
50745;SDS011;36711;51.972;21.204;2022-07-06T14:17:17;3.70;;;0.30;;
50745;SDS011;36711;51.972;21.204;2022-07-06T14:19:45;1.60;;;0.30;;
50745;SDS011;36711;51.972;21.204;2022-07-06T14:22:13;2.00;;;0.30;;
50745;SDS011;36711;51.972;21.204;2022-07-06T14:24:41;3.10;;;0.40;;
50745;SDS011;36711;51.972;21.204;2022-07-06T14:27:09;2.60;;;0.40;;
50745;SDS011;36711;51.972;21.204;2022-07-06T14:29:37;1.30;;;0.40;;
50745;SDS011;36711;51.972;21.204;2022-07-06T14:32:04;2.20;;;0.50;;
50745;SDS011;36711;51.972;21.204;2022-07-06T14:34:32;1.60;;;0.30;;
50745;SDS011;36711;51.972;21.204;2022-07-06T14:37:00;0.40;;;0.30;;
50745;SDS011;36711;51.972;21.204;2022-07-06T14:39:28;1.10;;;0.50;;
50745;SDS011;36711;51.972;21.204;2022-07-06T14:41:56;3.20;;;0.50;;
50745;SDS011;36711;51.972;21.204;2022-07-06T14:44:24;0.30;;;0.30;;
50745;SDS011;36711;51.972;21.204;2022-07-06T14:46:54;2.30;;;0.60;;
50745;SDS011;36711;51.972;21.204;2022-07-06T14:49:21;2.90;;;0.70;;